Time;durP1;ratioP1;P1;durP2;ratioP2;P2;SDS_P1;SDS_P2;PMS_P1;PMS_P2;Temp;Humidity;BMP_temperature;BMP_pressure;BME280_temperature;BME280_humidity;BME280_pressure;Samples;Min_cycle;Max_cycle;Signal;HPM_P1;HPM_P2
2023/07/01 00:00:48;;;;;;;24.45;11.50;;;;;;;;;;5040731;28;20262;-53
2023/07/01 00:03:13;;;;;;;23.77;11.45;;;;;;;;;;5024211;28;20493;-53
2023/07/01 00:05:39;;;;;;;26.52;11.15;;;;;;;;;;5025811;28;20009;-54
2023/07/01 00:08:04;;;;;;;23.23;10.90;;;;;;;;;;5024043;28;20057;-52
2023/07/01 00:10:29;;;;;;;28.43;11.47;;;;;;;;;;5025858;28;20027;-52
2023/07/01 00:12:54;;;;;;;19.52;11.75;;;;;;;;;;5037349;28;20812;-54
2023/07/01 00:15:20;;;;;;;20.47;15.03;;;;;;;;;;5044068;28;20078;-54
2023/07/01 00:17:45;;;;;;;19.20;15.02;;;;;;;;;;5028165;28;20269;-53
2023/07/01 00:20:11;;;;;;;524.42;479.58;;;;;;;;;;5028164;28;20116;-51
2023/07/01 00:22:36;;;;;;;533.22;486.10;;;;;;;;;;5027845;28;20058;-55
2023/07/01 00:25:01;;;;;;;528.33;482.58;;;;;;;;;;5030688;28;20040;-53
2023/07/01 00:27:27;;;;;;;524.33;476.37;;;;;;;;;;5029430;28;20303;-55
2023/07/01 00:29:52;;;;;;;525.47;479.57;;;;;;;;;;5027728;28;20631;-53
2023/07/01 00:32:17;;;;;;;525.63;476.55;;;;;;;;;;5044671;28;20261;-53
2023/07/01 00:34:43;;;;;;;533.43;485.00;;;;;;;;;;5047377;28;20491;-53
2023/07/01 00:37:08;;;;;;;512.58;464.90;;;;;;;;;;5030707;28;20280;-54
2023/07/01 00:39:33;;;;;;;521.00;475.25;;;;;;;;;;5028030;28;20048;-53
2023/07/01 00:41:59;;;;;;;507.90;462.13;;;;;;;;;;5027586;28;20254;-52
2023/07/01 00:44:24;;;;;;;524.22;476.13;;;;;;;;;;5027805;28;20027;-52
2023/07/01 00:46:50;;;;;;;515.72;468.85;;;;;;;;;;5036016;28;20037;-50
2023/07/01 00:49:15;;;;;;;504.20;458.42;;;;;;;;;;5038853;28;20451;-51
2023/07/01 00:51:40;;;;;;;521.05;474.52;;;;;;;;;;5027649;28;20488;-52
2023/07/01 00:54:06;;;;;;;515.22;466.08;;;;;;;;;;5027545;28;20087;-50
2023/07/01 00:56:31;;;;;;;504.23;459.92;;;;;;;;;;5032589;28;20037;-53
2023/07/01 00:58:56;;;;;;;515.03;467.45;;;;;;;;;;5046885;28;20021;-54
2023/07/01 01:01:25;;;;;;;517.00;469.17;;;;;;;;;;5037813;28;20030;-53
2023/07/01 01:04:11;;;;;;;498.02;451.52;;;;;;;;;;5027499;28;20417;-54
2023/07/01 01:06:43;;;;;;;516.25;467.63;;;;;;;;;;5035983;28;20025;-55
2023/07/01 01:09:11;;;;;;;502.50;455.23;;;;;;;;;;5043642;28;20033;-53
2023/07/01 01:11:40;;;;;;;509.67;460.63;;;;;;;;;;5043163;28;20041;-54
2023/07/01 01:14:07;;;;;;;489.85;443.67;;;;;;;;;;5039983;28;20024;-52
2023/07/01 01:16:33;;;;;;;502.85;456.00;;;;;;;;;;5042903;28;20136;-54
2023/07/01 01:18:58;;;;;;;504.98;456.33;;;;;;;;;;5043891;28;20041;-56
2023/07/01 01:21:25;;;;;;;494.00;446.65;;;;;;;;;;5043319;28;20033;-54
2023/07/01 01:23:52;;;;;;;500.58;451.35;;;;;;;;;;5043847;28;20040;-53
2023/07/01 01:26:19;;;;;;;495.45;448.63;;;;;;;;;;5042831;28;20558;-52
2023/07/01 01:28:45;;;;;;;495.98;448.88;;;;;;;;;;5042924;28;20037;-55
2023/07/01 01:31:11;;;;;;;491.95;443.45;;;;;;;;;;5041863;28;20199;-51
2023/07/01 01:33:37;;;;;;;491.23;443.92;;;;;;;;;;5041819;28;20035;-51
2023/07/01 01:36:28;;;;;;;474.55;430.40;;;;;;;;;;5042585;28;20033;-52
2023/07/01 01:38:56;;;;;;;495.25;446.33;;;;;;;;;;5039968;28;20054;-53
2023/07/01 01:41:32;;;;;;;485.13;439.02;;;;;;;;;;5042420;28;20052;-53
2023/07/01 01:43:59;;;;;;;471.90;424.48;;;;;;;;;;5035099;28;20087;-52
2023/07/01 01:46:25;;;;;;;466.83;423.38;;;;;;;;;;5036649;28;20047;-54
2023/07/01 01:48:52;;;;;;;480.13;433.33;;;;;;;;;;5040019;28;20548;-51
2023/07/01 01:51:18;;;;;;;483.55;437.20;;;;;;;;;;5026493;28;20057;-51
2023/07/01 01:53:44;;;;;;;489.80;439.77;;;;;;;;;;5026245;28;20104;-52
2023/07/01 01:56:10;;;;;;;483.70;437.40;;;;;;;;;;5034081;28;20457;-51
2023/07/01 01:58:36;;;;;;;492.50;444.42;;;;;;;;;;5046205;28;20485;-54
2023/07/01 02:01:01;;;;;;;478.95;431.98;;;;;;;;;;5040489;28;20056;-55
2023/07/01 02:03:27;;;;;;;468.95;421.95;;;;;;;;;;5026087;28;20536;-53
2023/07/01 02:05:52;;;;;;;482.52;433.15;;;;;;;;;;5030348;28;20104;-51
2023/07/01 02:08:17;;;;;;;472.30;427.33;;;;;;;;;;5045040;28;20051;-53
2023/07/01 02:10:43;;;;;;;34.38;31.05;;;;;;;;;;5034648;28;20477;-50
2023/07/01 02:13:08;;;;;;;29.88;24.38;;;;;;;;;;5026565;28;20063;-53
2023/07/01 02:15:33;;;;;;;31.98;28.75;;;;;;;;;;5028897;28;20032;-53
2023/07/01 02:17:58;;;;;;;29.35;26.17;;;;;;;;;;5026814;28;20045;-52
2023/07/01 02:20:24;;;;;;;33.47;29.97;;;;;;;;;;5026719;28;20029;-55
2023/07/01 02:22:49;;;;;;;33.35;30.00;;;;;;;;;;5045593;28;20269;-52
2023/07/01 02:25:14;;;;;;;34.42;30.77;;;;;;;;;;5044085;28;20380;-53
2023/07/01 02:27:40;;;;;;;34.33;31.20;;;;;;;;;;5025574;28;20041;-53
2023/07/01 02:30:06;;;;;;;28.83;25.33;;;;;;;;;;5025627;28;20108;-51
2023/07/01 02:32:31;;;;;;;38.17;29.67;;;;;;;;;;5025779;28;20033;-53
2023/07/01 02:34:56;;;;;;;38.08;34.75;;;;;;;;;;5025955;28;20083;-52
2023/07/01 02:37:22;;;;;;;36.75;32.95;;;;;;;;;;5026184;28;20467;-55
2023/07/01 02:39:47;;;;;;;32.25;28.95;;;;;;;;;;5035034;28;20031;-51
2023/07/01 02:42:15;;;;;;;32.67;29.02;;;;;;;;;;5044572;28;20100;-55
2023/07/01 02:44:41;;;;;;;29.67;26.58;;;;;;;;;;5035045;28;20376;-52
2023/07/01 02:47:06;;;;;;;23.95;21.70;;;;;;;;;;5025465;28;20385;-51
2023/07/01 02:49:32;;;;;;;26.38;23.85;;;;;;;;;;5025429;28;20083;-52
2023/07/01 02:51:57;;;;;;;36.03;32.35;;;;;;;;;;5025160;28;20393;-51
2023/07/01 02:54:22;;;;;;;34.33;31.42;;;;;;;;;;5025442;28;20507;-52
2023/07/01 02:56:48;;;;;;;37.72;34.22;;;;;;;;;;5025033;28;20052;-53
2023/07/01 02:59:13;;;;;;;36.72;33.47;;;;;;;;;;5025534;28;20520;-55
2023/07/01 03:01:38;;;;;;;39.60;36.25;;;;;;;;;;5025340;28;20056;-54
2023/07/01 03:04:05;;;;;;;32.78;28.92;;;;;;;;;;5025489;28;20021;-54
2023/07/01 03:06:30;;;;;;;31.67;28.48;;;;;;;;;;5034322;28;20061;-53
2023/07/01 03:08:56;;;;;;;34.95;31.70;;;;;;;;;;5030020;28;20397;-53
2023/07/01 03:11:21;;;;;;;36.17;33.17;;;;;;;;;;5029009;28;20108;-52
2023/07/01 03:13:46;;;;;;;42.28;38.53;;;;;;;;;;5025740;28;20061;-53
2023/07/01 03:16:12;;;;;;;36.40;33.10;;;;;;;;;;5032769;28;20124;-53
2023/07/01 03:18:37;;;;;;;41.83;37.50;;;;;;;;;;5025775;28;20029;-53
2023/07/01 03:21:02;;;;;;;38.97;35.67;;;;;;;;;;5041598;28;20024;-53
2023/07/01 03:23:28;;;;;;;45.78;41.60;;;;;;;;;;5030897;28;20354;-55
2023/07/01 03:25:53;;;;;;;38.70;35.42;;;;;;;;;;5025523;28;20037;-56
2023/07/01 03:28:18;;;;;;;34.03;30.50;;;;;;;;;;5044330;28;20046;-53
2023/07/01 03:30:44;;;;;;;36.50;32.85;;;;;;;;;;5045066;28;20024;-52
2023/07/01 03:33:12;;;;;;;36.65;33.58;;;;;;;;;;5044796;28;20469;-52
2023/07/01 03:35:37;;;;;;;35.08;31.95;;;;;;;;;;5045044;28;20476;-55
2023/07/01 03:38:02;;;;;;;37.83;34.33;;;;;;;;;;5038045;28;20027;-55
2023/07/01 03:40:27;;;;;;;31.52;28.35;;;;;;;;;;5044586;28;20104;-53
2023/07/01 03:42:53;;;;;;;26.10;23.65;;;;;;;;;;5044703;28;20241;-54
2023/07/01 03:45:18;;;;;;;29.75;27.40;;;;;;;;;;5041816;28;20118;-53
2023/07/01 03:47:44;;;;;;;27.83;25.57;;;;;;;;;;5044845;28;20064;-52
2023/07/01 03:50:10;;;;;;;27.52;24.95;;;;;;;;;;5046334;28;20777;-51
2023/07/01 03:52:36;;;;;;;23.70;20.42;;;;;;;;;;5033078;28;20501;-51
2023/07/01 03:55:02;;;;;;;26.05;23.50;;;;;;;;;;5038220;28;20035;-51
2023/07/01 03:57:28;;;;;;;25.45;22.92;;;;;;;;;;5028769;28;20416;-54
2023/07/01 03:59:53;;;;;;;24.10;20.45;;;;;;;;;;5034499;28;20039;-52
2023/07/01 04:02:19;;;;;;;19.13;16.15;;;;;;;;;;5048378;28;20056;-53
2023/07/01 04:04:44;;;;;;;17.45;15.63;;;;;;;;;;5039024;28;20476;-51
2023/07/01 04:07:09;;;;;;;16.73;13.68;;;;;;;;;;5028717;28;20508;-52
2023/07/01 04:09:35;;;;;;;12.67;11.40;;;;;;;;;;5028734;28;20025;-51
2023/07/01 04:12:00;;;;;;;18.55;12.35;;;;;;;;;;5028808;28;20235;-54
2023/07/01 04:14:25;;;;;;;15.80;11.57;;;;;;;;;;5028353;28;20033;-51
2023/07/01 04:16:51;;;;;;;19.20;10.02;;;;;;;;;;5036796;28;20049;-51
2023/07/01 04:19:16;;;;;;;15.57;9.55;;;;;;;;;;5048178;28;20301;-54
2023/07/01 04:21:41;;;;;;;14.93;10.00;;;;;;;;;;5048042;28;20013;-54
2023/07/01 04:24:07;;;;;;;20.15;9.52;;;;;;;;;;5047815;28;20051;-51
2023/07/01 04:26:36;;;;;;;16.05;8.60;;;;;;;;;;5048092;28;20025;-50
2023/07/01 04:29:01;;;;;;;15.30;8.52;;;;;;;;;;5036923;28;20112;-55
2023/07/01 04:31:26;;;;;;;13.57;7.85;;;;;;;;;;5028042;28;20112;-54
2023/07/01 04:33:52;;;;;;;15.02;6.30;;;;;;;;;;5027817;28;20442;-53
2023/07/01 04:36:17;;;;;;;15.77;8.33;;;;;;;;;;5029850;28;20026;-50
2023/07/01 04:38:42;;;;;;;16.70;8.00;;;;;;;;;;5027671;28;20262;-54
2023/07/01 04:41:07;;;;;;;13.57;6.87;;;;;;;;;;5027807;28;20048;-52
2023/07/01 04:43:33;;;;;;;11.65;6.05;;;;;;;;;;5027811;28;20491;-51
2023/07/01 04:45:58;;;;;;;21.52;8.07;;;;;;;;;;5028030;28;20392;-52
2023/07/01 04:48:23;;;;;;;16.23;6.82;;;;;;;;;;5027393;28;20064;-52
2023/07/01 04:50:49;;;;;;;13.50;6.30;;;;;;;;;;5027767;28;20049;-53
2023/07/01 04:53:14;;;;;;;14.43;6.40;;;;;;;;;;5042726;28;20262;-54
2023/07/01 04:55:39;;;;;;;15.20;6.88;;;;;;;;;;5047716;28;20258;-50
2023/07/01 04:58:05;;;;;;;14.45;6.07;;;;;;;;;;5047380;28;20020;-54
2023/07/01 05:00:30;;;;;;;17.52;7.38;;;;;;;;;;5047203;28;20031;-52
2023/07/01 05:02:55;;;;;;;12.20;6.50;;;;;;;;;;5040632;28;20377;-52
2023/07/01 05:05:20;;;;;;;17.60;7.70;;;;;;;;;;5029242;28;20158;-51
2023/07/01 05:07:46;;;;;;;11.70;6.13;;;;;;;;;;5046235;28;20342;-53
2023/07/01 05:10:11;;;;;;;21.00;6.60;;;;;;;;;;5030574;28;20274;-55
2023/07/01 05:12:36;;;;;;;15.03;6.43;;;;;;;;;;5034754;28;20392;-52
2023/07/01 05:15:02;;;;;;;18.03;6.90;;;;;;;;;;5047230;28;20321;-52
2023/07/01 05:17:27;;;;;;;15.88;6.78;;;;;;;;;;5044366;28;20286;-54
2023/07/01 05:19:52;;;;;;;12.80;6.70;;;;;;;;;;5041547;28;20582;-52
2023/07/01 05:22:17;;;;;;;11.23;5.97;;;;;;;;;;5025962;28;20250;-53
2023/07/01 05:24:43;;;;;;;9.15;4.95;;;;;;;;;;5027329;28;20613;-53
2023/07/01 05:27:08;;;;;;;15.60;6.30;;;;;;;;;;5026813;28;20466;-54
2023/07/01 05:29:33;;;;;;;13.27;6.10;;;;;;;;;;5026959;28;20262;-52
2023/07/01 05:31:59;;;;;;;13.02;6.30;;;;;;;;;;5026710;28;20278;-52
2023/07/01 05:34:24;;;;;;;14.23;5.80;;;;;;;;;;5026411;28;20048;-55
2023/07/01 05:36:50;;;;;;;14.13;6.03;;;;;;;;;;5027417;28;20017;-53
2023/07/01 05:39:15;;;;;;;8.68;5.28;;;;;;;;;;5026525;28;20053;-53
2023/07/01 05:41:41;;;;;;;12.00;6.00;;;;;;;;;;5035573;28;20021;-53
2023/07/01 05:44:06;;;;;;;10.73;5.22;;;;;;;;;;5027183;28;20021;-52
2023/07/01 05:46:31;;;;;;;19.23;6.55;;;;;;;;;;5026589;28;20099;-54
2023/07/01 05:48:57;;;;;;;20.03;5.83;;;;;;;;;;5026389;28;20464;-53
2023/07/01 05:51:22;;;;;;;13.55;5.13;;;;;;;;;;5026957;28;20263;-54
2023/07/01 05:53:48;;;;;;;12.88;5.88;;;;;;;;;;5041989;28;20453;-51
2023/07/01 05:56:14;;;;;;;14.38;5.00;;;;;;;;;;5037059;28;20025;-52
2023/07/01 05:58:39;;;;;;;20.85;5.85;;;;;;;;;;5026121;28;20026;-52
2023/07/01 06:01:05;;;;;;;10.80;5.53;;;;;;;;;;5033666;28;20403;-54
2023/07/01 06:03:30;;;;;;;11.43;5.27;;;;;;;;;;5046495;28;20088;-53
2023/07/01 06:05:55;;;;;;;13.32;5.05;;;;;;;;;;5039060;28;20259;-54
2023/07/01 06:08:21;;;;;;;13.57;5.50;;;;;;;;;;5040468;28;20028;-52
2023/07/01 06:10:46;;;;;;;13.55;5.57;;;;;;;;;;5036947;28;20270;-54
2023/07/01 06:13:11;;;;;;;13.10;6.10;;;;;;;;;;5026047;28;20763;-51
2023/07/01 06:15:36;;;;;;;9.93;5.33;;;;;;;;;;5029029;28;20052;-53
2023/07/01 06:18:02;;;;;;;14.57;6.30;;;;;;;;;;5038344;28;20642;-53
2023/07/01 06:20:27;;;;;;;16.07;6.10;;;;;;;;;;5026524;28;20025;-52
2023/07/01 06:22:52;;;;;;;11.40;5.57;;;;;;;;;;5026134;28;20254;-52
2023/07/01 06:25:18;;;;;;;20.38;6.28;;;;;;;;;;5025961;28;20638;-54
2023/07/01 06:27:43;;;;;;;14.43;5.63;;;;;;;;;;5025738;28;20453;-56
2023/07/01 06:30:09;;;;;;;15.35;6.18;;;;;;;;;;5038733;28;20034;-53
2023/07/01 06:32:34;;;;;;;10.40;5.25;;;;;;;;;;5026352;28;20021;-54
2023/07/01 06:34:59;;;;;;;11.70;6.25;;;;;;;;;;5024850;28;20363;-55
2023/07/01 06:37:24;;;;;;;9.77;5.40;;;;;;;;;;5027115;28;20127;-55
2023/07/01 06:39:50;;;;;;;15.30;5.80;;;;;;;;;;5028085;28;20259;-55
2023/07/01 06:42:15;;;;;;;15.40;5.75;;;;;;;;;;5037550;28;20650;-54
2023/07/01 06:44:40;;;;;;;10.93;5.40;;;;;;;;;;5035213;28;20117;-55
2023/07/01 06:47:06;;;;;;;17.43;5.63;;;;;;;;;;5025510;28;20267;-55
2023/07/01 06:49:34;;;;;;;8.13;5.15;;;;;;;;;;5012717;28;20282;-55
2023/07/01 06:51:59;;;;;;;14.88;4.97;;;;;;;;;;5035112;28;20017;-53
2023/07/01 06:54:25;;;;;;;11.77;4.43;;;;;;;;;;5033245;28;20175;-54
2023/07/01 06:56:50;;;;;;;11.17;4.60;;;;;;;;;;5026875;28;20111;-53
2023/07/01 06:59:15;;;;;;;9.13;4.63;;;;;;;;;;5025105;28;20270;-51
2023/07/01 07:01:40;;;;;;;9.27;5.30;;;;;;;;;;5026571;28;20021;-53
2023/07/01 07:04:06;;;;;;;13.88;5.05;;;;;;;;;;5024623;28;20483;-54
2023/07/01 07:06:31;;;;;;;8.82;4.07;;;;;;;;;;5034974;28;20130;-52
2023/07/01 07:08:57;;;;;;;20.67;6.17;;;;;;;;;;5044852;28;20021;-54
2023/07/01 07:11:22;;;;;;;16.63;4.87;;;;;;;;;;5037885;28;20017;-55
2023/07/01 07:13:47;;;;;;;10.53;4.23;;;;;;;;;;5036442;28;20380;-55
2023/07/01 07:16:12;;;;;;;8.27;4.43;;;;;;;;;;5035170;28;20057;-53
2023/07/01 07:18:38;;;;;;;10.13;4.33;;;;;;;;;;5025243;28;20246;-55
2023/07/01 07:21:03;;;;;;;13.57;4.37;;;;;;;;;;5024714;28;20274;-54
2023/07/01 07:23:28;;;;;;;12.33;4.13;;;;;;;;;;5024769;28;20032;-54
2023/07/01 07:25:53;;;;;;;10.33;4.10;;;;;;;;;;5029318;28;20070;-55
2023/07/01 07:28:19;;;;;;;15.18;4.10;;;;;;;;;;5043319;28;20025;-56
2023/07/01 07:30:44;;;;;;;7.27;3.90;;;;;;;;;;5024958;28;20324;-56
2023/07/01 07:33:09;;;;;;;15.13;4.00;;;;;;;;;;5044146;28;20300;-52
2023/07/01 07:35:34;;;;;;;14.23;3.50;;;;;;;;;;5041383;28;20455;-55
2023/07/01 07:38:00;;;;;;;5.85;3.17;;;;;;;;;;5039572;28;20016;-52
2023/07/01 07:40:25;;;;;;;11.33;3.47;;;;;;;;;;5042497;28;20028;-52
2023/07/01 07:42:54;;;;;;;9.10;3.63;;;;;;;;;;5033146;28;20491;-55
2023/07/01 07:45:20;;;;;;;;;;;;;;;;;;5025720;28;20033;-55
2023/07/01 07:47:45;;;;;;;17.63;4.22;;;;;;;;;;5024428;28;19915;-55
2023/07/01 07:50:10;;;;;;;6.88;2.95;;;;;;;;;;5024085;28;20033;-55
2023/07/01 07:52:36;;;;;;;7.17;3.30;;;;;;;;;;5035338;28;20021;-52
2023/07/01 07:55:01;;;;;;;7.87;3.67;;;;;;;;;;5042566;28;20253;-55
2023/07/01 07:57:26;;;;;;;7.70;3.67;;;;;;;;;;5043570;28;20040;-52
2023/07/01 07:59:52;;;;;;;5.00;3.20;;;;;;;;;;5044875;28;20021;-54
2023/07/01 08:02:17;;;;;;;7.82;3.03;;;;;;;;;;5026204;28;20316;-52
2023/07/01 08:04:42;;;;;;;7.77;3.10;;;;;;;;;;5024597;28;20476;-51
2023/07/01 08:07:08;;;;;;;5.17;2.90;;;;;;;;;;5024227;28;20025;-55
2023/07/01 08:09:33;;;;;;;10.13;3.43;;;;;;;;;;5024834;28;20491;-54
2023/07/01 08:12:00;;;;;;;10.05;3.28;;;;;;;;;;5027464;28;20278;-56
2023/07/01 08:14:26;;;;;;;8.73;3.65;;;;;;;;;;5043508;28;20427;-55
2023/07/01 08:16:52;;;;;;;5.38;3.40;;;;;;;;;;5030320;28;20107;-54
2023/07/01 08:19:18;;;;;;;6.95;2.92;;;;;;;;;;5024404;28;20029;-54
2023/07/01 08:21:43;;;;;;;9.47;3.10;;;;;;;;;;5034342;28;20097;-53
2023/07/01 08:24:09;;;;;;;8.50;3.43;;;;;;;;;;5037600;28;20362;-57
2023/07/01 08:26:34;;;;;;;12.80;3.17;;;;;;;;;;5031163;28;20262;-55
2023/07/01 08:28:59;;;;;;;7.30;3.50;;;;;;;;;;5023765;28;20041;-52
2023/07/01 08:31:24;;;;;;;11.05;4.40;;;;;;;;;;5026420;28;20277;-53
2023/07/01 08:33:50;;;;;;;5.00;3.37;;;;;;;;;;5044050;28;20461;-53
2023/07/01 08:36:15;;;;;;;6.65;3.53;;;;;;;;;;5035763;28;20277;-51
2023/07/01 08:38:40;;;;;;;9.70;3.80;;;;;;;;;;5028406;28;20037;-54
2023/07/01 08:41:08;;;;;;;14.00;3.72;;;;;;;;;;5027526;28;20254;-54
2023/07/01 08:43:34;;;;;;;6.18;3.35;;;;;;;;;;5027992;28;20026;-55
2023/07/01 08:46:03;;;;;;;5.43;2.97;;;;;;;;;;5034130;28;20035;-56
2023/07/01 08:48:28;;;;;;;;;;;;;;;;;;5047391;28;20548;-53
2023/07/01 08:50:58;;;;;;;10.60;3.67;;;;;;;;;;5039679;28;19999;-56
2023/07/01 08:53:24;;;;;;;4.60;2.92;;;;;;;;;;5027957;28;20032;-53
2023/07/01 08:55:49;;;;;;;5.47;2.97;;;;;;;;;;5028110;28;20396;-52
2023/07/01 08:58:15;;;;;;;6.07;2.85;;;;;;;;;;5027553;28;20372;-53
2023/07/01 09:00:40;;;;;;;5.38;3.28;;;;;;;;;;5028962;28;20469;-55
2023/07/01 09:03:06;;;;;;;8.33;3.53;;;;;;;;;;5031642;28;20453;-54
2023/07/01 09:05:31;;;;;;;7.57;3.63;;;;;;;;;;5044032;28;20025;-55
2023/07/01 09:07:56;;;;;;;6.27;3.20;;;;;;;;;;5027150;28;20013;-52
2023/07/01 09:10:21;;;;;;;6.33;3.43;;;;;;;;;;5028673;28;20421;-54
2023/07/01 09:12:47;;;;;;;5.47;3.13;;;;;;;;;;5030471;28;20369;-50
2023/07/01 09:15:12;;;;;;;6.67;2.80;;;;;;;;;;5027724;28;20251;-53
2023/07/01 09:17:38;;;;;;;6.80;3.00;;;;;;;;;;5047069;28;20071;-51
2023/07/01 09:20:05;;;;;;;6.75;3.08;;;;;;;;;;5047218;28;20112;-51
2023/07/01 09:22:30;;;;;;;7.35;3.45;;;;;;;;;;5027667;28;20025;-54
2023/07/01 09:24:55;;;;;;;13.13;3.80;;;;;;;;;;5026990;28;20032;-55
2023/07/01 09:27:21;;;;;;;10.55;3.72;;;;;;;;;;5026819;28;20060;-52
2023/07/01 09:29:46;;;;;;;11.02;3.55;;;;;;;;;;5027046;28;20468;-51
2023/07/01 09:32:24;;;;;;;7.63;3.25;;;;;;;;;;5035969;28;20028;-56
2023/07/01 09:34:57;;;;;;;8.15;3.75;;;;;;;;;;5029608;28;20355;-51
2023/07/01 09:37:23;;;;;;;10.13;4.30;;;;;;;;;;5027779;28;20112;-50
2023/07/01 09:39:49;;;;;;;11.13;4.40;;;;;;;;;;5027164;28;20029;-52
2023/07/01 09:42:16;;;;;;;8.48;3.88;;;;;;;;;;5028089;28;20024;-54
2023/07/01 09:44:42;;;;;;;6.65;3.30;;;;;;;;;;5034809;28;20091;-54
2023/07/01 09:47:07;;;;;;;4.97;3.10;;;;;;;;;;5026326;28;20441;-53
2023/07/01 09:49:44;;;;;;;10.52;3.67;;;;;;;;;;5007319;28;20285;-54
2023/07/01 09:52:09;;;;;;;4.75;3.35;;;;;;;;;;5041891;28;20048;-54
2023/07/01 09:54:36;;;;;;;8.70;3.78;;;;;;;;;;5039379;28;20068;-56
2023/07/01 09:57:01;;;;;;;7.68;3.92;;;;;;;;;;5026735;28;20026;-55
2023/07/01 09:59:27;;;;;;;8.10;3.90;;;;;;;;;;5026266;28;20041;-55
2023/07/01 10:01:55;;;;;;;9.23;3.88;;;;;;;;;;5054604;28;20087;-55
2023/07/01 10:04:27;;;;;;;5.95;3.08;;;;;;;;;;5045480;28;20058;-54
2023/07/01 10:06:53;;;;;;;6.95;3.42;;;;;;;;;;5032092;28;20364;-55
2023/07/01 10:09:19;;;;;;;8.30;3.65;;;;;;;;;;5027068;28;20022;-50
2023/07/01 10:11:44;;;;;;;11.77;4.20;;;;;;;;;;5029085;28;20091;-54
2023/07/01 10:14:10;;;;;;;14.00;3.88;;;;;;;;;;5026067;28;20254;-53
2023/07/01 10:16:46;;;;;;;7.90;4.35;;;;;;;;;;5030519;28;20052;-54
2023/07/01 10:19:29;;;;;;;11.60;3.67;;;;;;;;;;5044600;28;20389;-54
2023/07/01 10:22:18;;;;;;;7.65;3.67;;;;;;;;;;5038261;28;20633;-53
2023/07/01 10:24:44;;;;;;;6.10;4.22;;;;;;;;;;5033123;28;20539;-53
2023/07/01 10:27:09;;;;;;;8.03;3.60;;;;;;;;;;5028702;28;20021;-53
2023/07/01 10:29:36;;;;;;;7.87;3.57;;;;;;;;;;5038973;28;20112;-56
2023/07/01 10:32:13;;;;;;;14.90;4.75;;;;;;;;;;5039383;28;20059;-56
2023/07/01 10:34:58;;;;;;;6.55;3.88;;;;;;;;;;5026807;28;20079;-54
2023/07/01 10:37:25;;;;;;;12.38;3.63;;;;;;;;;;5043755;28;20448;-53
2023/07/01 10:39:50;;;;;;;7.03;3.35;;;;;;;;;;5025899;28;20029;-56
2023/07/01 10:42:31;;;;;;;9.30;3.70;;;;;;;;;;5025702;28;20079;-51
2023/07/01 10:45:08;;;;;;;8.45;3.65;;;;;;;;;;5026690;28;20554;-54
2023/07/01 10:47:33;;;;;;;11.48;3.70;;;;;;;;;;5040988;28;20025;-56
2023/07/01 10:49:59;;;;;;;10.57;3.83;;;;;;;;;;5032989;28;20156;-54
2023/07/01 10:52:24;;;;;;;9.05;3.88;;;;;;;;;;5040061;28;20268;-55
2023/07/01 10:54:51;;;;;;;10.25;3.38;;;;;;;;;;5039151;28;20024;-54
2023/07/01 10:57:18;;;;;;;8.32;3.50;;;;;;;;;;5032665;28;20024;-51
2023/07/01 10:59:43;;;;;;;9.23;3.95;;;;;;;;;;5034402;28;20472;-54
2023/07/01 11:02:09;;;;;;;12.30;4.03;;;;;;;;;;5039460;28;20025;-54
2023/07/01 11:04:56;;;;;;;9.75;3.65;;;;;;;;;;5042593;28;20028;-55
2023/07/01 11:07:25;;;;;;;4.60;3.10;;;;;;;;;;5025586;28;20358;-55
2023/07/01 11:09:51;;;;;;;9.95;3.88;;;;;;;;;;5025886;28;20053;-54
2023/07/01 11:12:16;;;;;;;6.82;3.70;;;;;;;;;;5028528;28;20052;-55
2023/07/01 11:14:42;;;;;;;8.98;3.25;;;;;;;;;;5025252;28;20436;-53
2023/07/01 11:17:09;;;;;;;5.37;3.30;;;;;;;;;;5025067;28;20046;-56
2023/07/01 11:19:36;;;;;;;6.00;2.57;;;;;;;;;;4989439;28;20045;-51
2023/07/01 11:22:01;;;;;;;7.20;3.08;;;;;;;;;;5024528;28;20036;-52
2023/07/01 11:24:27;;;;;;;7.22;2.97;;;;;;;;;;5024281;28;20029;-55
2023/07/01 11:26:58;;;;;;;5.88;3.00;;;;;;;;;;5024846;28;20123;-53
2023/07/01 11:29:24;;;;;;;6.30;2.83;;;;;;;;;;5024769;28;20025;-54
2023/07/01 11:31:56;;;;;;;8.27;3.28;;;;;;;;;;5024596;28;20531;-55
2023/07/01 11:34:22;;;;;;;9.35;3.45;;;;;;;;;;5024474;28;20025;-53
2023/07/01 11:36:48;;;;;;;6.07;2.92;;;;;;;;;;5022842;28;20378;-55
2023/07/01 11:39:16;;;;;;;10.65;3.90;;;;;;;;;;5025455;28;20025;-52
2023/07/01 11:41:43;;;;;;;3.95;2.42;;;;;;;;;;5024789;28;20021;-54
2023/07/01 11:44:09;;;;;;;8.50;3.05;;;;;;;;;;5037323;28;20084;-55
2023/07/01 11:46:37;;;;;;;6.13;3.05;;;;;;;;;;5042154;28;20061;-53
2023/07/01 11:49:31;;;;;;;7.13;4.03;;;;;;;;;;5044682;28;20116;-50
2023/07/01 11:51:57;;;;;;;7.10;3.15;;;;;;;;;;5016607;28;20064;-55
2023/07/01 11:54:24;;;;;;;7.20;3.08;;;;;;;;;;5021015;28;20136;-52
2023/07/01 11:56:52;;;;;;;5.22;3.03;;;;;;;;;;5021091;28;20485;-55
2023/07/01 11:59:28;;;;;;;5.40;3.25;;;;;;;;;;5022010;28;20049;-54
2023/07/01 12:01:53;;;;;;;10.77;3.38;;;;;;;;;;5019518;28;20036;-55
2023/07/01 12:04:18;;;;;;;9.18;3.17;;;;;;;;;;5021605;28;20022;-53
2023/07/01 12:06:44;;;;;;;5.07;3.35;;;;;;;;;;5018449;28;20061;-53
2023/07/01 12:09:09;;;;;;;10.70;3.97;;;;;;;;;;5020169;28;20420;-55
2023/07/01 12:11:47;;;;;;;5.20;3.50;;;;;;;;;;5019768;28;20033;-55
2023/07/01 12:14:19;;;;;;;7.88;3.35;;;;;;;;;;5025158;28;20619;-53
2023/07/01 12:16:47;;;;;;;6.97;3.65;;;;;;;;;;5023130;28;20045;-55
2023/07/01 12:19:13;;;;;;;9.55;3.55;;;;;;;;;;5024641;28;20501;-55
2023/07/01 12:21:40;;;;;;;5.72;2.80;;;;;;;;;;5023585;28;20041;-54
2023/07/01 12:24:15;;;;;;;4.65;2.85;;;;;;;;;;5025366;28;20026;-53
2023/07/01 12:26:40;;;;;;;5.32;2.85;;;;;;;;;;5007859;28;20152;-55
2023/07/01 12:29:05;;;;;;;9.60;3.43;;;;;;;;;;5019515;28;20140;-54
2023/07/01 12:31:30;;;;;;;7.90;3.43;;;;;;;;;;5027799;28;20038;-55
2023/07/01 12:33:56;;;;;;;4.23;3.20;;;;;;;;;;5027863;28;20509;-55
2023/07/01 12:36:21;;;;;;;7.53;3.83;;;;;;;;;;5037609;28;20021;-55
2023/07/01 12:38:46;;;;;;;5.53;3.40;;;;;;;;;;5048026;28;20104;-53
2023/07/01 12:41:11;;;;;;;7.77;3.83;;;;;;;;;;5038186;28;20270;-51
2023/07/01 12:43:37;;;;;;;5.87;3.10;;;;;;;;;;5029342;28;20274;-54
2023/07/01 12:46:03;;;;;;;7.10;3.30;;;;;;;;;;5034567;28;20261;-55
2023/07/01 12:48:28;;;;;;;6.40;3.60;;;;;;;;;;5045079;28;20099;-54
2023/07/01 12:50:54;;;;;;;6.53;3.70;;;;;;;;;;5040946;28;20025;-56
2023/07/01 12:53:19;;;;;;;8.95;3.65;;;;;;;;;;5027357;28;20255;-51
2023/07/01 12:55:49;;;;;;;6.37;3.23;;;;;;;;;;5027163;28;20040;-51
2023/07/01 12:58:15;;;;;;;10.02;3.65;;;;;;;;;;5026045;28;20316;-53
2023/07/01 13:00:41;;;;;;;10.10;3.67;;;;;;;;;;5027260;28;20469;-51
2023/07/01 13:03:07;;;;;;;8.60;3.65;;;;;;;;;;5027420;28;20032;-52
2023/07/01 13:05:32;;;;;;;10.48;3.80;;;;;;;;;;5027073;28;20029;-54
2023/07/01 13:08:00;;;;;;;7.95;3.60;;;;;;;;;;5026870;28;20525;-51
2023/07/01 13:10:25;;;;;;;5.10;3.60;;;;;;;;;;5043652;28;20017;-56
2023/07/01 13:12:54;;;;;;;7.32;3.75;;;;;;;;;;5029460;28;20555;-53
2023/07/01 13:15:30;;;;;;;11.25;5.55;;;;;;;;;;5028191;28;20029;-51
2023/07/01 13:17:55;;;;;;;7.28;3.08;;;;;;;;;;5047128;28;20044;-53
2023/07/01 13:20:23;;;;;;;6.63;3.55;;;;;;;;;;5045997;28;20108;-54
2023/07/01 13:22:51;;;;;;;6.70;3.88;;;;;;;;;;5036179;28;20491;-54
2023/07/01 13:25:18;;;;;;;10.18;4.45;;;;;;;;;;5034437;28;20017;-52
2023/07/01 13:27:43;;;;;;;7.60;3.72;;;;;;;;;;5027006;28;20587;-54
2023/07/01 13:30:15;;;;;;;8.88;4.05;;;;;;;;;;5038093;28;20132;-55
2023/07/01 13:32:40;;;;;;;6.07;3.65;;;;;;;;;;5025603;28;20030;-53
2023/07/01 13:35:06;;;;;;;6.60;3.42;;;;;;;;;;5026214;28;20395;-53
2023/07/01 13:37:32;;;;;;;5.93;2.95;;;;;;;;;;5043930;28;20035;-53
2023/07/01 13:39:57;;;;;;;6.72;3.58;;;;;;;;;;5026786;28;20022;-54
2023/07/01 13:42:26;;;;;;;8.75;3.60;;;;;;;;;;5027092;28;20084;-55
2023/07/01 13:44:52;;;;;;;7.65;3.80;;;;;;;;;;5028500;28;20083;-50
2023/07/01 13:47:24;;;;;;;8.48;3.50;;;;;;;;;;5043496;28;20404;-54
2023/07/01 13:49:49;;;;;;;9.32;3.92;;;;;;;;;;5038295;28;20032;-56
2023/07/01 13:52:15;;;;;;;6.07;3.63;;;;;;;;;;5043243;28;20032;-54
2023/07/01 13:54:40;;;;;;;8.77;3.43;;;;;;;;;;5031697;28;20258;-52
2023/07/01 13:57:10;;;;;;;11.47;3.93;;;;;;;;;;5039292;28;20370;-52
2023/07/01 13:59:36;;;;;;;8.45;3.80;;;;;;;;;;5033443;28;20021;-51
2023/07/01 14:02:03;;;;;;;7.55;3.60;;;;;;;;;;5027874;28;20445;-53
2023/07/01 14:04:31;;;;;;;6.80;3.45;;;;;;;;;;5026066;28;20025;-53
2023/07/01 14:06:57;;;;;;;7.72;3.58;;;;;;;;;;5039594;28;20025;-54
2023/07/01 14:09:29;;;;;;;5.72;3.15;;;;;;;;;;5030312;28;20026;-51
2023/07/01 14:11:55;;;;;;;11.43;3.85;;;;;;;;;;5032216;28;20040;-54
2023/07/01 14:14:25;;;;;;;8.07;3.60;;;;;;;;;;5026399;28;20031;-53
2023/07/01 14:16:51;;;;;;;6.57;3.63;;;;;;;;;;5039677;28;20057;-53
2023/07/01 14:19:17;;;;;;;6.95;3.40;;;;;;;;;;5043302;28;20044;-54
2023/07/01 14:21:46;;;;;;;4.53;3.08;;;;;;;;;;5032800;28;20060;-54
2023/07/01 14:24:23;;;;;;;9.32;3.17;;;;;;;;;;5026014;28;20033;-53